sensor_id;sensor_type;location;lat;lon;timestamp;P1;durP1;ratioP1;P2;durP2;ratioP2
6757;SDS011;3416;53.074;8.822;2022-08-14T00:00:18;8.87;;;7.33;;
6757;SDS011;3416;53.074;8.822;2022-08-14T00:02:47;7.23;;;6.57;;
6757;SDS011;3416;53.074;8.822;2022-08-14T00:05:15;8.43;;;7.10;;
6757;SDS011;3416;53.074;8.822;2022-08-14T00:07:44;8.50;;;7.03;;
6757;SDS011;3416;53.074;8.822;2022-08-14T00:10:12;8.97;;;7.73;;
6757;SDS011;3416;53.074;8.822;2022-08-14T00:12:44;10.00;;;7.63;;
6757;SDS011;3416;53.074;8.822;2022-08-14T00:15:14;8.20;;;7.10;;
6757;SDS011;3416;53.074;8.822;2022-08-14T00:17:43;13.83;;;8.20;;
6757;SDS011;3416;53.074;8.822;2022-08-14T00:20:11;7.53;;;6.73;;
6757;SDS011;3416;53.074;8.822;2022-08-14T00:22:38;10.93;;;8.07;;
6757;SDS011;3416;53.074;8.822;2022-08-14T00:25:06;7.57;;;6.77;;
6757;SDS011;3416;53.074;8.822;2022-08-14T00:27:36;10.30;;;9.30;;
6757;SDS011;3416;53.074;8.822;2022-08-14T00:30:04;12.63;;;9.37;;
6757;SDS011;3416;53.074;8.822;2022-08-14T00:32:33;8.80;;;7.80;;
6757;SDS011;3416;53.074;8.822;2022-08-14T00:35:00;12.53;;;9.23;;
6757;SDS011;3416;53.074;8.822;2022-08-14T00:37:27;16.77;;;13.33;;
6757;SDS011;3416;53.074;8.822;2022-08-14T00:39:55;14.53;;;13.00;;
6757;SDS011;3416;53.074;8.822;2022-08-14T00:42:23;13.77;;;12.37;;
6757;SDS011;3416;53.074;8.822;2022-08-14T00:44:50;15.07;;;13.57;;
6757;SDS011;3416;53.074;8.822;2022-08-14T00:47:17;14.03;;;12.80;;
6757;SDS011;3416;53.074;8.822;2022-08-14T00:49:45;17.63;;;16.00;;
6757;SDS011;3416;53.074;8.822;2022-08-14T00:52:13;19.43;;;16.87;;
6757;SDS011;3416;53.074;8.822;2022-08-14T00:54:41;17.37;;;15.67;;
6757;SDS011;3416;53.074;8.822;2022-08-14T00:57:08;12.10;;;10.20;;
6757;SDS011;3416;53.074;8.822;2022-08-14T00:59:37;11.53;;;10.40;;
6757;SDS011;3416;53.074;8.822;2022-08-14T01:02:05;10.47;;;8.10;;
6757;SDS011;3416;53.074;8.822;2022-08-14T01:04:32;11.40;;;7.63;;
6757;SDS011;3416;53.074;8.822;2022-08-14T01:07:00;10.03;;;7.17;;
6757;SDS011;3416;53.074;8.822;2022-08-14T01:09:28;9.37;;;7.73;;
6757;SDS011;3416;53.074;8.822;2022-08-14T01:11:56;8.03;;;7.03;;
6757;SDS011;3416;53.074;8.822;2022-08-14T01:14:24;7.70;;;7.00;;
6757;SDS011;3416;53.074;8.822;2022-08-14T01:16:52;8.40;;;7.20;;
6757;SDS011;3416;53.074;8.822;2022-08-14T01:19:19;7.03;;;6.43;;
6757;SDS011;3416;53.074;8.822;2022-08-14T01:22:05;9.13;;;6.80;;
6757;SDS011;3416;53.074;8.822;2022-08-14T01:24:32;7.50;;;6.57;;
6757;SDS011;3416;53.074;8.822;2022-08-14T01:27:00;7.57;;;6.80;;
6757;SDS011;3416;53.074;8.822;2022-08-14T01:29:29;7.77;;;6.97;;
6757;SDS011;3416;53.074;8.822;2022-08-14T01:32:00;7.73;;;6.60;;
6757;SDS011;3416;53.074;8.822;2022-08-14T01:34:28;9.17;;;7.60;;
6757;SDS011;3416;53.074;8.822;2022-08-14T01:36:57;8.80;;;7.50;;
6757;SDS011;3416;53.074;8.822;2022-08-14T01:39:30;7.60;;;6.90;;
6757;SDS011;3416;53.074;8.822;2022-08-14T01:41:57;9.50;;;7.80;;
6757;SDS011;3416;53.074;8.822;2022-08-14T01:44:26;13.60;;;8.20;;
6757;SDS011;3416;53.074;8.822;2022-08-14T01:46:56;8.20;;;6.90;;
6757;SDS011;3416;53.074;8.822;2022-08-14T01:49:25;9.63;;;7.13;;
6757;SDS011;3416;53.074;8.822;2022-08-14T01:51:55;8.83;;;7.90;;
6757;SDS011;3416;53.074;8.822;2022-08-14T01:54:23;9.07;;;8.27;;
6757;SDS011;3416;53.074;8.822;2022-08-14T01:56:52;6.77;;;6.10;;
6757;SDS011;3416;53.074;8.822;2022-08-14T01:59:21;13.30;;;8.00;;
6757;SDS011;3416;53.074;8.822;2022-08-14T02:01:51;8.63;;;7.50;;
6757;SDS011;3416;53.074;8.822;2022-08-14T02:04:24;11.20;;;8.67;;
6757;SDS011;3416;53.074;8.822;2022-08-14T02:06:53;9.20;;;8.30;;
6757;SDS011;3416;53.074;8.822;2022-08-14T02:09:20;7.80;;;7.00;;
6757;SDS011;3416;53.074;8.822;2022-08-14T02:11:48;10.13;;;8.33;;
6757;SDS011;3416;53.074;8.822;2022-08-14T02:14:17;9.43;;;7.20;;
6757;SDS011;3416;53.074;8.822;2022-08-14T02:16:45;7.80;;;6.73;;
6757;SDS011;3416;53.074;8.822;2022-08-14T02:19:18;7.07;;;6.40;;
6757;SDS011;3416;53.074;8.822;2022-08-14T02:21:46;7.20;;;6.27;;
6757;SDS011;3416;53.074;8.822;2022-08-14T02:24:16;7.67;;;6.83;;
6757;SDS011;3416;53.074;8.822;2022-08-14T02:26:45;9.30;;;7.90;;
6757;SDS011;3416;53.074;8.822;2022-08-14T02:29:27;8.87;;;8.03;;
6757;SDS011;3416;53.074;8.822;2022-08-14T02:31:59;7.83;;;7.00;;
6757;SDS011;3416;53.074;8.822;2022-08-14T02:34:27;10.60;;;7.23;;
6757;SDS011;3416;53.074;8.822;2022-08-14T02:36:58;8.27;;;7.43;;
6757;SDS011;3416;53.074;8.822;2022-08-14T02:39:27;8.53;;;7.73;;
6757;SDS011;3416;53.074;8.822;2022-08-14T02:41:55;7.93;;;7.13;;
6757;SDS011;3416;53.074;8.822;2022-08-14T02:44:22;8.00;;;7.23;;
6757;SDS011;3416;53.074;8.822;2022-08-14T02:46:52;7.60;;;6.90;;
6757;SDS011;3416;53.074;8.822;2022-08-14T02:49:21;9.63;;;8.30;;
6757;SDS011;3416;53.074;8.822;2022-08-14T02:51:50;11.37;;;8.50;;
6757;SDS011;3416;53.074;8.822;2022-08-14T02:54:19;7.93;;;7.20;;
6757;SDS011;3416;53.074;8.822;2022-08-14T02:56:47;9.13;;;8.23;;
6757;SDS011;3416;53.074;8.822;2022-08-14T02:59:14;8.77;;;8.03;;
6757;SDS011;3416;53.074;8.822;2022-08-14T03:01:42;10.70;;;8.70;;
6757;SDS011;3416;53.074;8.822;2022-08-14T03:04:11;11.00;;;7.83;;
6757;SDS011;3416;53.074;8.822;2022-08-14T03:06:39;8.13;;;7.43;;
6757;SDS011;3416;53.074;8.822;2022-08-14T03:09:07;9.37;;;8.10;;
6757;SDS011;3416;53.074;8.822;2022-08-14T03:11:35;8.70;;;7.90;;
6757;SDS011;3416;53.074;8.822;2022-08-14T03:14:02;9.20;;;8.00;;
6757;SDS011;3416;53.074;8.822;2022-08-14T03:16:29;13.53;;;7.27;;
6757;SDS011;3416;53.074;8.822;2022-08-14T03:18:59;19.93;;;8.53;;
6757;SDS011;3416;53.074;8.822;2022-08-14T03:21:28;10.10;;;7.90;;
6757;SDS011;3416;53.074;8.822;2022-08-14T03:23:55;8.47;;;7.70;;
6757;SDS011;3416;53.074;8.822;2022-08-14T03:26:31;8.33;;;7.40;;
6757;SDS011;3416;53.074;8.822;2022-08-14T03:28:57;8.70;;;7.90;;
6757;SDS011;3416;53.074;8.822;2022-08-14T03:31:25;8.27;;;7.50;;
6757;SDS011;3416;53.074;8.822;2022-08-14T03:33:52;14.33;;;8.53;;
6757;SDS011;3416;53.074;8.822;2022-08-14T03:36:20;8.17;;;7.43;;
6757;SDS011;3416;53.074;8.822;2022-08-14T03:38:49;7.93;;;7.23;;
6757;SDS011;3416;53.074;8.822;2022-08-14T03:41:18;9.23;;;8.33;;
6757;SDS011;3416;53.074;8.822;2022-08-14T03:43:49;8.77;;;7.63;;
6757;SDS011;3416;53.074;8.822;2022-08-14T03:46:18;8.23;;;7.43;;
6757;SDS011;3416;53.074;8.822;2022-08-14T03:48:46;8.60;;;7.43;;
6757;SDS011;3416;53.074;8.822;2022-08-14T03:51:13;8.40;;;7.60;;
6757;SDS011;3416;53.074;8.822;2022-08-14T03:53:42;9.07;;;8.17;;
6757;SDS011;3416;53.074;8.822;2022-08-14T03:56:12;9.00;;;8.10;;
6757;SDS011;3416;53.074;8.822;2022-08-14T03:58:41;8.80;;;7.87;;
6757;SDS011;3416;53.074;8.822;2022-08-14T04:01:09;8.47;;;7.67;;
6757;SDS011;3416;53.074;8.822;2022-08-14T04:03:37;9.03;;;8.23;;
6757;SDS011;3416;53.074;8.822;2022-08-14T04:06:04;10.43;;;9.43;;
6757;SDS011;3416;53.074;8.822;2022-08-14T04:08:33;8.77;;;7.97;;
6757;SDS011;3416;53.074;8.822;2022-08-14T04:11:00;9.00;;;7.53;;
6757;SDS011;3416;53.074;8.822;2022-08-14T04:13:29;12.00;;;8.77;;
6757;SDS011;3416;53.074;8.822;2022-08-14T04:15:56;9.73;;;8.87;;
6757;SDS011;3416;53.074;8.822;2022-08-14T04:18:24;10.13;;;8.20;;
6757;SDS011;3416;53.074;8.822;2022-08-14T04:20:51;8.93;;;8.03;;
6757;SDS011;3416;53.074;8.822;2022-08-14T04:23:18;8.53;;;7.77;;
6757;SDS011;3416;53.074;8.822;2022-08-14T04:25:45;9.40;;;8.13;;
6757;SDS011;3416;53.074;8.822;2022-08-14T04:28:12;9.93;;;8.93;;
6757;SDS011;3416;53.074;8.822;2022-08-14T04:30:40;10.83;;;9.80;;
6757;SDS011;3416;53.074;8.822;2022-08-14T04:33:07;10.47;;;9.40;;
6757;SDS011;3416;53.074;8.822;2022-08-14T04:35:35;9.40;;;7.90;;
6757;SDS011;3416;53.074;8.822;2022-08-14T04:38:05;10.33;;;8.77;;
6757;SDS011;3416;53.074;8.822;2022-08-14T04:40:50;9.50;;;8.60;;
6757;SDS011;3416;53.074;8.822;2022-08-14T04:43:35;9.20;;;8.40;;
6757;SDS011;3416;53.074;8.822;2022-08-14T04:46:07;9.50;;;8.30;;
6757;SDS011;3416;53.074;8.822;2022-08-14T04:48:36;9.90;;;8.83;;
6757;SDS011;3416;53.074;8.822;2022-08-14T04:51:03;11.43;;;9.57;;
6757;SDS011;3416;53.074;8.822;2022-08-14T04:53:32;10.83;;;9.07;;
6757;SDS011;3416;53.074;8.822;2022-08-14T04:55:59;9.50;;;8.50;;
6757;SDS011;3416;53.074;8.822;2022-08-14T04:58:27;10.60;;;8.83;;
6757;SDS011;3416;53.074;8.822;2022-08-14T05:00:56;11.33;;;8.93;;
6757;SDS011;3416;53.074;8.822;2022-08-14T05:03:25;9.30;;;8.50;;
6757;SDS011;3416;53.074;8.822;2022-08-14T05:05:55;9.47;;;8.67;;
6757;SDS011;3416;53.074;8.822;2022-08-14T05:08:23;9.83;;;8.67;;
6757;SDS011;3416;53.074;8.822;2022-08-14T05:10:52;10.10;;;8.03;;
6757;SDS011;3416;53.074;8.822;2022-08-14T05:13:21;9.57;;;8.77;;
6757;SDS011;3416;53.074;8.822;2022-08-14T05:15:49;11.10;;;9.57;;
6757;SDS011;3416;53.074;8.822;2022-08-14T05:18:18;14.63;;;10.17;;
6757;SDS011;3416;53.074;8.822;2022-08-14T05:20:50;9.33;;;8.53;;
6757;SDS011;3416;53.074;8.822;2022-08-14T05:23:19;9.90;;;9.00;;
6757;SDS011;3416;53.074;8.822;2022-08-14T05:25:49;9.63;;;8.67;;
6757;SDS011;3416;53.074;8.822;2022-08-14T05:28:19;10.33;;;9.40;;
6757;SDS011;3416;53.074;8.822;2022-08-14T05:30:49;9.40;;;8.60;;
6757;SDS011;3416;53.074;8.822;2022-08-14T05:33:17;8.93;;;7.70;;
6757;SDS011;3416;53.074;8.822;2022-08-14T05:35:46;7.97;;;7.27;;
6757;SDS011;3416;53.074;8.822;2022-08-14T05:38:17;9.00;;;7.93;;
6757;SDS011;3416;53.074;8.822;2022-08-14T05:40:46;9.20;;;7.80;;
6757;SDS011;3416;53.074;8.822;2022-08-14T05:43:14;9.30;;;8.50;;
6757;SDS011;3416;53.074;8.822;2022-08-14T05:45:42;8.70;;;7.00;;
6757;SDS011;3416;53.074;8.822;2022-08-14T05:48:12;8.43;;;7.63;;
6757;SDS011;3416;53.074;8.822;2022-08-14T05:50:40;8.40;;;7.60;;
6757;SDS011;3416;53.074;8.822;2022-08-14T05:53:09;12.20;;;8.83;;
6757;SDS011;3416;53.074;8.822;2022-08-14T05:55:36;12.67;;;10.80;;
6757;SDS011;3416;53.074;8.822;2022-08-14T05:58:03;36.40;;;27.63;;
6757;SDS011;3416;53.074;8.822;2022-08-14T06:00:33;47.93;;;35.70;;
6757;SDS011;3416;53.074;8.822;2022-08-14T06:03:02;43.27;;;29.30;;
6757;SDS011;3416;53.074;8.822;2022-08-14T06:05:31;27.53;;;21.53;;
6757;SDS011;3416;53.074;8.822;2022-08-14T06:07:58;24.63;;;17.47;;
6757;SDS011;3416;53.074;8.822;2022-08-14T06:10:27;13.10;;;10.40;;
6757;SDS011;3416;53.074;8.822;2022-08-14T06:12:56;9.77;;;7.47;;
6757;SDS011;3416;53.074;8.822;2022-08-14T06:15:26;8.70;;;7.77;;
6757;SDS011;3416;53.074;8.822;2022-08-14T06:17:53;7.23;;;6.70;;
6757;SDS011;3416;53.074;8.822;2022-08-14T06:20:20;8.43;;;7.40;;
6757;SDS011;3416;53.074;8.822;2022-08-14T06:22:48;9.90;;;8.10;;
6757;SDS011;3416;53.074;8.822;2022-08-14T06:25:15;8.93;;;8.00;;
6757;SDS011;3416;53.074;8.822;2022-08-14T06:27:44;8.67;;;7.90;;
6757;SDS011;3416;53.074;8.822;2022-08-14T06:30:15;10.03;;;7.87;;
6757;SDS011;3416;53.074;8.822;2022-08-14T06:32:43;8.60;;;7.90;;
6757;SDS011;3416;53.074;8.822;2022-08-14T06:35:10;7.70;;;7.00;;
6757;SDS011;3416;53.074;8.822;2022-08-14T06:37:39;10.50;;;6.80;;
6757;SDS011;3416;53.074;8.822;2022-08-14T06:40:08;8.30;;;7.60;;
6757;SDS011;3416;53.074;8.822;2022-08-14T06:42:36;7.83;;;7.23;;
6757;SDS011;3416;53.074;8.822;2022-08-14T06:45:05;8.03;;;6.53;;
6757;SDS011;3416;53.074;8.822;2022-08-14T06:47:33;10.83;;;7.80;;
6757;SDS011;3416;53.074;8.822;2022-08-14T06:50:00;5.80;;;5.40;;
6757;SDS011;3416;53.074;8.822;2022-08-14T06:52:27;6.30;;;5.70;;
6757;SDS011;3416;53.074;8.822;2022-08-14T06:54:54;8.87;;;7.67;;
6757;SDS011;3416;53.074;8.822;2022-08-14T06:57:22;7.73;;;6.90;;
6757;SDS011;3416;53.074;8.822;2022-08-14T06:59:49;7.97;;;7.37;;
6757;SDS011;3416;53.074;8.822;2022-08-14T07:02:17;11.70;;;8.10;;
6757;SDS011;3416;53.074;8.822;2022-08-14T07:05:02;7.93;;;7.23;;
6757;SDS011;3416;53.074;8.822;2022-08-14T07:07:47;6.20;;;5.70;;
6757;SDS011;3416;53.074;8.822;2022-08-14T07:10:14;9.30;;;8.40;;
6757;SDS011;3416;53.074;8.822;2022-08-14T07:12:41;36.20;;;30.57;;
6757;SDS011;3416;53.074;8.822;2022-08-14T07:15:08;7.60;;;6.90;;
6757;SDS011;3416;53.074;8.822;2022-08-14T07:17:43;13.43;;;11.33;;
6757;SDS011;3416;53.074;8.822;2022-08-14T07:20:11;9.33;;;8.47;;
6757;SDS011;3416;53.074;8.822;2022-08-14T07:22:38;11.00;;;10.03;;
6757;SDS011;3416;53.074;8.822;2022-08-14T07:25:05;9.20;;;8.50;;
6757;SDS011;3416;53.074;8.822;2022-08-14T07:27:32;8.10;;;7.40;;
6757;SDS011;3416;53.074;8.822;2022-08-14T07:30:00;7.83;;;7.13;;
6757;SDS011;3416;53.074;8.822;2022-08-14T07:32:29;10.03;;;8.83;;
6757;SDS011;3416;53.074;8.822;2022-08-14T07:34:57;7.57;;;6.93;;
6757;SDS011;3416;53.074;8.822;2022-08-14T07:37:24;8.80;;;7.90;;
6757;SDS011;3416;53.074;8.822;2022-08-14T07:39:51;8.10;;;7.47;;
6757;SDS011;3416;53.074;8.822;2022-08-14T07:42:17;7.57;;;6.83;;
6757;SDS011;3416;53.074;8.822;2022-08-14T07:44:44;6.50;;;6.00;;
6757;SDS011;3416;53.074;8.822;2022-08-14T07:47:11;9.90;;;8.90;;
6757;SDS011;3416;53.074;8.822;2022-08-14T07:49:40;7.90;;;7.40;;
6757;SDS011;3416;53.074;8.822;2022-08-14T07:52:08;11.50;;;10.30;;
6757;SDS011;3416;53.074;8.822;2022-08-14T07:54:35;11.27;;;10.27;;
6757;SDS011;3416;53.074;8.822;2022-08-14T07:57:02;7.80;;;7.10;;
6757;SDS011;3416;53.074;8.822;2022-08-14T07:59:29;8.57;;;7.77;;
6757;SDS011;3416;53.074;8.822;2022-08-14T08:01:56;7.97;;;7.27;;
6757;SDS011;3416;53.074;8.822;2022-08-14T08:04:23;8.20;;;7.40;;
6757;SDS011;3416;53.074;8.822;2022-08-14T08:06:54;8.37;;;7.20;;
6757;SDS011;3416;53.074;8.822;2022-08-14T08:09:22;9.13;;;8.43;;
6757;SDS011;3416;53.074;8.822;2022-08-14T08:11:51;7.80;;;7.20;;
6757;SDS011;3416;53.074;8.822;2022-08-14T08:14:19;8.63;;;8.03;;
6757;SDS011;3416;53.074;8.822;2022-08-14T08:16:46;8.50;;;7.70;;
6757;SDS011;3416;53.074;8.822;2022-08-14T08:19:14;8.97;;;7.97;;
6757;SDS011;3416;53.074;8.822;2022-08-14T08:21:43;8.60;;;7.80;;
6757;SDS011;3416;53.074;8.822;2022-08-14T08:24:10;7.73;;;7.13;;
6757;SDS011;3416;53.074;8.822;2022-08-14T08:26:39;8.00;;;7.40;;
6757;SDS011;3416;53.074;8.822;2022-08-14T08:29:06;8.50;;;6.87;;
6757;SDS011;3416;53.074;8.822;2022-08-14T08:31:44;8.30;;;7.60;;
6757;SDS011;3416;53.074;8.822;2022-08-14T08:34:13;8.37;;;7.67;;
6757;SDS011;3416;53.074;8.822;2022-08-14T08:36:40;7.80;;;7.20;;
6757;SDS011;3416;53.074;8.822;2022-08-14T08:39:08;8.23;;;7.43;;
6757;SDS011;3416;53.074;8.822;2022-08-14T08:41:40;8.20;;;7.50;;
6757;SDS011;3416;53.074;8.822;2022-08-14T08:44:08;9.03;;;8.13;;
6757;SDS011;3416;53.074;8.822;2022-08-14T08:46:35;7.43;;;6.83;;
6757;SDS011;3416;53.074;8.822;2022-08-14T08:49:02;9.30;;;8.60;;
6757;SDS011;3416;53.074;8.822;2022-08-14T08:51:30;8.87;;;8.07;;
6757;SDS011;3416;53.074;8.822;2022-08-14T08:53:58;7.70;;;7.10;;
6757;SDS011;3416;53.074;8.822;2022-08-14T08:56:34;14.83;;;13.13;;
6757;SDS011;3416;53.074;8.822;2022-08-14T08:59:14;15.33;;;7.77;;
6757;SDS011;3416;53.074;8.822;2022-08-14T09:01:45;8.30;;;7.70;;
6757;SDS011;3416;53.074;8.822;2022-08-14T09:04:15;7.50;;;6.90;;
6757;SDS011;3416;53.074;8.822;2022-08-14T09:06:43;10.93;;;9.97;;
6757;SDS011;3416;53.074;8.822;2022-08-14T09:09:16;11.90;;;10.80;;
6757;SDS011;3416;53.074;8.822;2022-08-14T09:11:44;8.80;;;8.10;;
6757;SDS011;3416;53.074;8.822;2022-08-14T09:14:12;7.53;;;6.93;;
6757;SDS011;3416;53.074;8.822;2022-08-14T09:16:39;8.67;;;7.93;;
6757;SDS011;3416;53.074;8.822;2022-08-14T09:19:06;9.73;;;8.83;;
6757;SDS011;3416;53.074;8.822;2022-08-14T09:21:34;10.50;;;8.80;;
6757;SDS011;3416;53.074;8.822;2022-08-14T09:24:03;8.90;;;8.10;;
6757;SDS011;3416;53.074;8.822;2022-08-14T09:26:31;9.50;;;8.70;;
6757;SDS011;3416;53.074;8.822;2022-08-14T09:28:58;9.63;;;8.83;;
6757;SDS011;3416;53.074;8.822;2022-08-14T09:31:26;9.47;;;8.77;;
6757;SDS011;3416;53.074;8.822;2022-08-14T09:33:57;8.03;;;7.23;;
6757;SDS011;3416;53.074;8.822;2022-08-14T09:39:25;9.13;;;8.33;;
6757;SDS011;3416;53.074;8.822;2022-08-14T09:42:07;12.90;;;8.17;;
6757;SDS011;3416;53.074;8.822;2022-08-14T09:45:00;8.50;;;7.80;;
6757;SDS011;3416;53.074;8.822;2022-08-14T09:47:47;8.17;;;7.57;;
6757;SDS011;3416;53.074;8.822;2022-08-14T09:50:19;9.33;;;8.53;;
6757;SDS011;3416;53.074;8.822;2022-08-14T09:52:49;9.43;;;8.53;;
6757;SDS011;3416;53.074;8.822;2022-08-14T09:55:20;8.90;;;8.10;;
6757;SDS011;3416;53.074;8.822;2022-08-14T09:57:49;10.70;;;8.77;;
6757;SDS011;3416;53.074;8.822;2022-08-14T10:00:17;8.63;;;7.83;;
6757;SDS011;3416;53.074;8.822;2022-08-14T10:02:53;9.17;;;8.17;;
6757;SDS011;3416;53.074;8.822;2022-08-14T10:05:28;8.83;;;7.93;;
6757;SDS011;3416;53.074;8.822;2022-08-14T10:07:59;8.70;;;7.80;;
6757;SDS011;3416;53.074;8.822;2022-08-14T10:10:29;9.77;;;8.90;;
6757;SDS011;3416;53.074;8.822;2022-08-14T10:12:57;9.03;;;8.07;;
6757;SDS011;3416;53.074;8.822;2022-08-14T10:15:26;9.03;;;8.13;;
6757;SDS011;3416;53.074;8.822;2022-08-14T10:18:05;8.77;;;7.87;;
6757;SDS011;3416;53.074;8.822;2022-08-14T10:20:35;12.40;;;9.00;;
6757;SDS011;3416;53.074;8.822;2022-08-14T10:23:12;8.57;;;7.70;;
6757;SDS011;3416;53.074;8.822;2022-08-14T10:25:41;13.53;;;7.90;;
6757;SDS011;3416;53.074;8.822;2022-08-14T10:28:09;9.40;;;7.60;;
6757;SDS011;3416;53.074;8.822;2022-08-14T10:30:40;7.57;;;6.80;;
6757;SDS011;3416;53.074;8.822;2022-08-14T10:33:09;8.53;;;7.83;;
6757;SDS011;3416;53.074;8.822;2022-08-14T10:35:39;8.27;;;7.50;;
6757;SDS011;3416;53.074;8.822;2022-08-14T10:38:07;9.00;;;8.30;;
6757;SDS011;3416;53.074;8.822;2022-08-14T10:40:35;9.90;;;8.90;;
6757;SDS011;3416;53.074;8.822;2022-08-14T10:43:02;9.53;;;8.63;;
6757;SDS011;3416;53.074;8.822;2022-08-14T10:45:30;9.37;;;8.27;;
6757;SDS011;3416;53.074;8.822;2022-08-14T10:47:58;8.47;;;7.20;;
6757;SDS011;3416;53.074;8.822;2022-08-14T10:50:31;8.50;;;7.80;;
6757;SDS011;3416;53.074;8.822;2022-08-14T10:53:00;10.10;;;9.10;;
6757;SDS011;3416;53.074;8.822;2022-08-14T10:55:31;10.07;;;7.90;;
6757;SDS011;3416;53.074;8.822;2022-08-14T10:58:04;7.80;;;7.07;;
6757;SDS011;3416;53.074;8.822;2022-08-14T11:00:34;8.77;;;8.07;;
6757;SDS011;3416;53.074;8.822;2022-08-14T11:03:03;9.00;;;8.30;;
6757;SDS011;3416;53.074;8.822;2022-08-14T11:05:38;8.40;;;7.70;;
6757;SDS011;3416;53.074;8.822;2022-08-14T11:08:07;9.33;;;8.53;;
6757;SDS011;3416;53.074;8.822;2022-08-14T11:10:40;8.20;;;7.50;;
6757;SDS011;3416;53.074;8.822;2022-08-14T11:13:14;9.00;;;7.70;;
6757;SDS011;3416;53.074;8.822;2022-08-14T11:15:42;9.30;;;8.20;;
6757;SDS011;3416;53.074;8.822;2022-08-14T11:18:13;8.80;;;8.00;;
6757;SDS011;3416;53.074;8.822;2022-08-14T11:20:43;9.07;;;8.30;;
6757;SDS011;3416;53.074;8.822;2022-08-14T11:23:14;9.67;;;7.87;;
6757;SDS011;3416;53.074;8.822;2022-08-14T11:25:43;8.03;;;7.30;;
6757;SDS011;3416;53.074;8.822;2022-08-14T11:28:11;8.77;;;7.87;;
6757;SDS011;3416;53.074;8.822;2022-08-14T11:30:39;13.13;;;7.07;;
6757;SDS011;3416;53.074;8.822;2022-08-14T11:33:08;10.07;;;7.83;;
6757;SDS011;3416;53.074;8.822;2022-08-14T11:35:35;8.03;;;7.33;;
6757;SDS011;3416;53.074;8.822;2022-08-14T11:38:06;8.43;;;7.63;;
6757;SDS011;3416;53.074;8.822;2022-08-14T11:40:36;7.77;;;7.07;;
6757;SDS011;3416;53.074;8.822;2022-08-14T11:43:04;8.77;;;8.07;;
6757;SDS011;3416;53.074;8.822;2022-08-14T11:45:34;9.27;;;8.47;;
6757;SDS011;3416;53.074;8.822;2022-08-14T11:48:13;9.40;;;8.40;;
6757;SDS011;3416;53.074;8.822;2022-08-14T11:50:41;8.40;;;7.70;;
6757;SDS011;3416;53.074;8.822;2022-08-14T11:53:21;8.90;;;8.00;;
6757;SDS011;3416;53.074;8.822;2022-08-14T11:55:54;9.13;;;8.00;;
6757;SDS011;3416;53.074;8.822;2022-08-14T11:58:26;7.90;;;7.20;;
6757;SDS011;3416;53.074;8.822;2022-08-14T12:00:57;7.77;;;7.07;;
6757;SDS011;3416;53.074;8.822;2022-08-14T12:03:36;9.00;;;8.10;;
6757;SDS011;3416;53.074;8.822;2022-08-14T12:06:07;8.70;;;7.87;;
6757;SDS011;3416;53.074;8.822;2022-08-14T12:08:48;9.20;;;8.20;;
6757;SDS011;3416;53.074;8.822;2022-08-14T12:11:18;9.57;;;8.67;;
6757;SDS011;3416;53.074;8.822;2022-08-14T12:13:46;13.50;;;7.47;;
6757;SDS011;3416;53.074;8.822;2022-08-14T12:16:14;8.67;;;6.87;;
6757;SDS011;3416;53.074;8.822;2022-08-14T12:18:42;9.90;;;6.83;;
6757;SDS011;3416;53.074;8.822;2022-08-14T12:21:13;8.10;;;7.40;;
6757;SDS011;3416;53.074;8.822;2022-08-14T12:23:43;10.20;;;8.07;;
6757;SDS011;3416;53.074;8.822;2022-08-14T12:26:13;8.43;;;7.73;;
6757;SDS011;3416;53.074;8.822;2022-08-14T12:28:47;9.60;;;7.20;;
6757;SDS011;3416;53.074;8.822;2022-08-14T12:31:17;8.13;;;7.33;;
6757;SDS011;3416;53.074;8.822;2022-08-14T12:33:54;8.43;;;7.73;;
6757;SDS011;3416;53.074;8.822;2022-08-14T12:36:23;7.80;;;6.57;;
6757;SDS011;3416;53.074;8.822;2022-08-14T12:38:56;9.43;;;8.53;;
6757;SDS011;3416;53.074;8.822;2022-08-14T12:41:27;7.77;;;7.07;;
6757;SDS011;3416;53.074;8.822;2022-08-14T12:44:02;11.23;;;7.20;;
6757;SDS011;3416;53.074;8.822;2022-08-14T12:46:33;8.10;;;7.30;;
6757;SDS011;3416;53.074;8.822;2022-08-14T12:49:07;7.67;;;6.83;;
6757;SDS011;3416;53.074;8.822;2022-08-14T12:51:37;7.83;;;6.87;;
6757;SDS011;3416;53.074;8.822;2022-08-14T12:54:14;8.90;;;8.00;;
6757;SDS011;3416;53.074;8.822;2022-08-14T12:56:43;8.57;;;7.87;;
6757;SDS011;3416;53.074;8.822;2022-08-14T12:59:12;12.13;;;8.73;;
6757;SDS011;3416;53.074;8.822;2022-08-14T13:01:40;8.37;;;7.50;;
6757;SDS011;3416;53.074;8.822;2022-08-14T13:04:11;9.87;;;8.03;;
6757;SDS011;3416;53.074;8.822;2022-08-14T13:06:41;9.67;;;7.80;;
6757;SDS011;3416;53.074;8.822;2022-08-14T13:09:10;7.87;;;7.13;;
6757;SDS011;3416;53.074;8.822;2022-08-14T13:11:42;8.87;;;7.77;;
6757;SDS011;3416;53.074;8.822;2022-08-14T13:14:10;10.57;;;8.47;;
6757;SDS011;3416;53.074;8.822;2022-08-14T13:16:39;11.03;;;8.70;;
6757;SDS011;3416;53.074;8.822;2022-08-14T13:19:09;7.97;;;7.00;;
6757;SDS011;3416;53.074;8.822;2022-08-14T13:21:41;8.57;;;7.30;;
6757;SDS011;3416;53.074;8.822;2022-08-14T13:24:09;8.67;;;7.87;;
6757;SDS011;3416;53.074;8.822;2022-08-14T13:26:38;9.07;;;8.00;;
6757;SDS011;3416;53.074;8.822;2022-08-14T13:29:13;9.80;;;8.20;;
6757;SDS011;3416;53.074;8.822;2022-08-14T13:31:44;8.33;;;7.57;;
6757;SDS011;3416;53.074;8.822;2022-08-14T13:34:15;8.73;;;7.73;;
6757;SDS011;3416;53.074;8.822;2022-08-14T13:36:45;10.53;;;8.67;;
6757;SDS011;3416;53.074;8.822;2022-08-14T13:39:14;8.20;;;7.50;;
6757;SDS011;3416;53.074;8.822;2022-08-14T13:41:47;7.63;;;6.93;;
6757;SDS011;3416;53.074;8.822;2022-08-14T13:44:16;8.13;;;7.43;;
6757;SDS011;3416;53.074;8.822;2022-08-14T13:46:49;10.07;;;9.07;;
6757;SDS011;3416;53.074;8.822;2022-08-14T13:49:18;8.47;;;7.57;;
6757;SDS011;3416;53.074;8.822;2022-08-14T13:51:52;8.30;;;7.57;;
6757;SDS011;3416;53.074;8.822;2022-08-14T13:54:23;9.97;;;6.70;;
6757;SDS011;3416;53.074;8.822;2022-08-14T13:56:58;9.30;;;8.40;;
6757;SDS011;3416;53.074;8.822;2022-08-14T13:59:28;8.60;;;7.40;;
6757;SDS011;3416;53.074;8.822;2022-08-14T14:02:02;8.67;;;7.87;;
6757;SDS011;3416;53.074;8.822;2022-08-14T14:04:32;8.57;;;7.67;;
6757;SDS011;3416;53.074;8.822;2022-08-14T14:07:05;9.27;;;7.60;;
6757;SDS011;3416;53.074;8.822;2022-08-14T14:09:36;7.77;;;7.07;;
6757;SDS011;3416;53.074;8.822;2022-08-14T14:12:07;9.13;;;8.23;;
6757;SDS011;3416;53.074;8.822;2022-08-14T14:14:41;9.00;;;8.10;;
6757;SDS011;3416;53.074;8.822;2022-08-14T14:17:09;9.70;;;8.80;;
6757;SDS011;3416;53.074;8.822;2022-08-14T14:19:39;8.10;;;7.30;;
6757;SDS011;3416;53.074;8.822;2022-08-14T14:22:11;8.93;;;7.03;;
6757;SDS011;3416;53.074;8.822;2022-08-14T14:24:42;8.40;;;7.40;;
6757;SDS011;3416;53.074;8.822;2022-08-14T14:27:12;8.17;;;7.40;;
6757;SDS011;3416;53.074;8.822;2022-08-14T14:29:44;7.43;;;6.83;;
6757;SDS011;3416;53.074;8.822;2022-08-14T14:32:13;9.13;;;8.27;;
6757;SDS011;3416;53.074;8.822;2022-08-14T14:34:42;7.47;;;6.77;;
6757;SDS011;3416;53.074;8.822;2022-08-14T14:37:10;8.43;;;7.57;;
6757;SDS011;3416;53.074;8.822;2022-08-14T14:39:39;8.07;;;7.40;;
6757;SDS011;3416;53.074;8.822;2022-08-14T14:42:07;10.63;;;7.20;;
6757;SDS011;3416;53.074;8.822;2022-08-14T14:44:37;8.53;;;7.50;;
6757;SDS011;3416;53.074;8.822;2022-08-14T14:47:09;8.93;;;8.17;;
6757;SDS011;3416;53.074;8.822;2022-08-14T14:49:40;8.27;;;7.50;;
6757;SDS011;3416;53.074;8.822;2022-08-14T14:52:08;7.63;;;6.93;;
6757;SDS011;3416;53.074;8.822;2022-08-14T14:54:35;7.30;;;6.60;;
6757;SDS011;3416;53.074;8.822;2022-08-14T14:57:03;8.50;;;7.00;;
6757;SDS011;3416;53.074;8.822;2022-08-14T14:59:30;8.67;;;7.27;;
6757;SDS011;3416;53.074;8.822;2022-08-14T15:02:01;7.97;;;7.17;;
6757;SDS011;3416;53.074;8.822;2022-08-14T15:04:30;8.20;;;7.43;;
6757;SDS011;3416;53.074;8.822;2022-08-14T15:06:58;9.20;;;8.13;;
6757;SDS011;3416;53.074;8.822;2022-08-14T15:09:25;8.20;;;7.40;;
6757;SDS011;3416;53.074;8.822;2022-08-14T15:11:52;8.23;;;7.53;;
6757;SDS011;3416;53.074;8.822;2022-08-14T15:14:22;8.47;;;7.60;;
6757;SDS011;3416;53.074;8.822;2022-08-14T15:16:49;8.83;;;7.93;;
6757;SDS011;3416;53.074;8.822;2022-08-14T15:19:17;7.43;;;6.83;;
6757;SDS011;3416;53.074;8.822;2022-08-14T15:21:48;7.70;;;6.90;;
6757;SDS011;3416;53.074;8.822;2022-08-14T15:24:17;7.53;;;6.93;;
6757;SDS011;3416;53.074;8.822;2022-08-14T15:26:43;7.20;;;6.60;;